In Rescue
 
Open Full Screen Window  High Contrast Mode
Wind Gusting 00 knots
07
July 24, 2024 4:00 PM CDT
Weather Information
Wind Direction
  080 °
Wind Speed
  07 kt (8 mph)
Wind Gust
  00 kt (0 mph)
Altimeter
30.17 in
Visibility
10 SM
Temperature
25° C
77° F
Dewpoint
19° C
66° F
Humidity
69%
1hr Rain Fall
00.00 in.
24hr Rain Fall
00.04 in.
Sky Condition
Scattered @ 4,200 ft
Few @ 3,000 ft
VFR

METAR KTKC 242100Z AUTO 08007KT 10SM FEW030 SCT042 25/19 A3017 RMK AO2

FAA Disclaimer: The data displayed is for advisory purposes only and is not to be used for flight planning or operations.